sensor_id;sensor_type;location;lat;lon;timestamp;P1;durP1;ratioP1;P2;durP2;ratioP2
36931;SDS011;22847;42.654;23.370;2022-11-15T00:01:09;73.25;;;33.97;;
36931;SDS011;22847;42.654;23.370;2022-11-15T00:03:40;76.03;;;33.88;;
36931;SDS011;22847;42.654;23.370;2022-11-15T00:06:05;67.97;;;29.15;;
36931;SDS011;22847;42.654;23.370;2022-11-15T00:08:31;61.80;;;28.40;;
36931;SDS011;22847;42.654;23.370;2022-11-15T00:10:57;72.88;;;36.08;;
36931;SDS011;22847;42.654;23.370;2022-11-15T00:13:24;87.63;;;36.67;;
36931;SDS011;22847;42.654;23.370;2022-11-15T00:15:50;79.70;;;35.78;;
36931;SDS011;22847;42.654;23.370;2022-11-15T00:18:16;74.93;;;33.67;;
36931;SDS011;22847;42.654;23.370;2022-11-15T00:20:42;77.28;;;34.42;;
36931;SDS011;22847;42.654;23.370;2022-11-15T00:23:08;79.85;;;34.15;;
36931;SDS011;22847;42.654;23.370;2022-11-15T00:25:33;72.70;;;33.55;;
36931;SDS011;22847;42.654;23.370;2022-11-15T00:27:59;77.57;;;34.83;;
36931;SDS011;22847;42.654;23.370;2022-11-15T00:30:25;82.20;;;35.42;;
36931;SDS011;22847;42.654;23.370;2022-11-15T00:32:52;73.55;;;34.00;;
36931;SDS011;22847;42.654;23.370;2022-11-15T00:35:17;81.70;;;36.53;;
36931;SDS011;22847;42.654;23.370;2022-11-15T00:37:43;74.93;;;36.72;;
36931;SDS011;22847;42.654;23.370;2022-11-15T00:40:09;80.60;;;37.08;;
36931;SDS011;22847;42.654;23.370;2022-11-15T00:42:35;82.55;;;37.15;;
36931;SDS011;22847;42.654;23.370;2022-11-15T00:45:01;81.50;;;37.20;;
36931;SDS011;22847;42.654;23.370;2022-11-15T00:47:26;81.75;;;36.17;;
36931;SDS011;22847;42.654;23.370;2022-11-15T00:49:52;91.22;;;38.13;;
36931;SDS011;22847;42.654;23.370;2022-11-15T00:52:17;71.93;;;35.35;;
36931;SDS011;22847;42.654;23.370;2022-11-15T00:54:43;87.75;;;37.80;;
36931;SDS011;22847;42.654;23.370;2022-11-15T00:57:08;86.28;;;37.03;;
36931;SDS011;22847;42.654;23.370;2022-11-15T00:59:33;76.57;;;33.80;;
36931;SDS011;22847;42.654;23.370;2022-11-15T01:01:59;70.47;;;33.00;;
36931;SDS011;22847;42.654;23.370;2022-11-15T01:04:24;74.90;;;32.47;;
36931;SDS011;22847;42.654;23.370;2022-11-15T01:06:50;77.78;;;36.45;;
36931;SDS011;22847;42.654;23.370;2022-11-15T01:09:15;69.35;;;31.52;;
36931;SDS011;22847;42.654;23.370;2022-11-15T01:11:40;79.25;;;34.65;;
36931;SDS011;22847;42.654;23.370;2022-11-15T01:14:06;78.57;;;35.35;;
36931;SDS011;22847;42.654;23.370;2022-11-15T01:16:31;69.60;;;32.80;;
36931;SDS011;22847;42.654;23.370;2022-11-15T01:18:58;63.97;;;31.63;;
36931;SDS011;22847;42.654;23.370;2022-11-15T01:21:23;77.20;;;35.70;;
36931;SDS011;22847;42.654;23.370;2022-11-15T01:23:52;73.45;;;34.70;;
36931;SDS011;22847;42.654;23.370;2022-11-15T01:26:19;76.10;;;33.53;;
36931;SDS011;22847;42.654;23.370;2022-11-15T01:28:45;70.50;;;33.72;;
36931;SDS011;22847;42.654;23.370;2022-11-15T01:31:14;79.95;;;35.47;;
36931;SDS011;22847;42.654;23.370;2022-11-15T01:33:41;80.00;;;36.67;;
36931;SDS011;22847;42.654;23.370;2022-11-15T01:36:07;87.53;;;37.55;;
36931;SDS011;22847;42.654;23.370;2022-11-15T01:38:36;82.57;;;37.58;;
36931;SDS011;22847;42.654;23.370;2022-11-15T01:41:02;77.82;;;36.28;;
36931;SDS011;22847;42.654;23.370;2022-11-15T01:43:29;85.38;;;46.30;;
36931;SDS011;22847;42.654;23.370;2022-11-15T01:45:58;74.22;;;37.78;;
36931;SDS011;22847;42.654;23.370;2022-11-15T01:48:33;71.28;;;33.00;;
36931;SDS011;22847;42.654;23.370;2022-11-15T01:50:59;78.20;;;36.95;;
36931;SDS011;22847;42.654;23.370;2022-11-15T01:53:29;79.57;;;36.90;;
36931;SDS011;22847;42.654;23.370;2022-11-15T01:55:58;87.65;;;40.20;;
36931;SDS011;22847;42.654;23.370;2022-11-15T01:58:28;98.10;;;43.75;;
36931;SDS011;22847;42.654;23.370;2022-11-15T02:00:53;110.25;;;46.45;;
36931;SDS011;22847;42.654;23.370;2022-11-15T02:03:18;94.57;;;43.72;;
36931;SDS011;22847;42.654;23.370;2022-11-15T02:05:48;82.63;;;39.50;;
36931;SDS011;22847;42.654;23.370;2022-11-15T02:08:17;81.00;;;38.08;;
36931;SDS011;22847;42.654;23.370;2022-11-15T02:10:45;76.03;;;37.55;;
36931;SDS011;22847;42.654;23.370;2022-11-15T02:13:12;81.80;;;37.63;;
36931;SDS011;22847;42.654;23.370;2022-11-15T02:15:40;81.90;;;36.25;;
36931;SDS011;22847;42.654;23.370;2022-11-15T02:18:37;81.47;;;36.90;;
36931;SDS011;22847;42.654;23.370;2022-11-15T02:21:05;79.35;;;36.80;;
36931;SDS011;22847;42.654;23.370;2022-11-15T02:31:03;83.20;;;36.40;;
36931;SDS011;22847;42.654;23.370;2022-11-15T02:33:41;81.90;;;37.08;;
36931;SDS011;22847;42.654;23.370;2022-11-15T02:38:58;71.53;;;35.63;;
36931;SDS011;22847;42.654;23.370;2022-11-15T02:41:30;78.20;;;36.38;;
36931;SDS011;22847;42.654;23.370;2022-11-15T02:47:01;83.78;;;40.47;;
36931;SDS011;22847;42.654;23.370;2022-11-15T02:49:45;100.35;;;45.47;;
36931;SDS011;22847;42.654;23.370;2022-11-15T02:52:16;106.85;;;47.55;;
36931;SDS011;22847;42.654;23.370;2022-11-15T02:54:42;99.65;;;47.42;;
36931;SDS011;22847;42.654;23.370;2022-11-15T02:57:17;99.47;;;44.95;;
36931;SDS011;22847;42.654;23.370;2022-11-15T02:59:52;90.38;;;43.80;;
36931;SDS011;22847;42.654;23.370;2022-11-15T03:16:12;90.63;;;40.95;;
36931;SDS011;22847;42.654;23.370;2022-11-15T03:18:49;87.43;;;39.17;;
36931;SDS011;22847;42.654;23.370;2022-11-15T03:21:21;84.88;;;40.35;;
36931;SDS011;22847;42.654;23.370;2022-11-15T03:23:47;88.93;;;39.03;;
36931;SDS011;22847;42.654;23.370;2022-11-15T03:26:15;85.35;;;38.13;;
36931;SDS011;22847;42.654;23.370;2022-11-15T03:28:49;87.57;;;37.97;;
36931;SDS011;22847;42.654;23.370;2022-11-15T03:31:18;87.93;;;37.58;;
36931;SDS011;22847;42.654;23.370;2022-11-15T03:34:06;89.68;;;38.92;;
36931;SDS011;22847;42.654;23.370;2022-11-15T03:36:34;81.82;;;39.03;;
36931;SDS011;22847;42.654;23.370;2022-11-15T03:39:01;89.38;;;38.25;;
36931;SDS011;22847;42.654;23.370;2022-11-15T03:41:51;83.32;;;38.15;;
36931;SDS011;22847;42.654;23.370;2022-11-15T03:44:41;86.33;;;36.90;;
36931;SDS011;22847;42.654;23.370;2022-11-15T03:47:29;95.55;;;37.83;;
36931;SDS011;22847;42.654;23.370;2022-11-15T03:49:59;83.85;;;36.95;;
36931;SDS011;22847;42.654;23.370;2022-11-15T03:52:31;83.63;;;37.72;;
36931;SDS011;22847;42.654;23.370;2022-11-15T03:54:59;84.35;;;37.58;;
36931;SDS011;22847;42.654;23.370;2022-11-15T03:57:26;92.65;;;40.88;;
36931;SDS011;22847;42.654;23.370;2022-11-15T03:59:52;93.18;;;39.78;;
36931;SDS011;22847;42.654;23.370;2022-11-15T04:02:18;92.20;;;41.92;;
36931;SDS011;22847;42.654;23.370;2022-11-15T04:04:43;90.25;;;41.05;;
36931;SDS011;22847;42.654;23.370;2022-11-15T04:07:09;97.20;;;40.00;;
36931;SDS011;22847;42.654;23.370;2022-11-15T04:09:34;97.53;;;42.72;;
36931;SDS011;22847;42.654;23.370;2022-11-15T04:12:19;42.08;;;20.92;;
36931;SDS011;22847;42.654;23.370;2022-11-15T04:14:55;33.67;;;18.02;;
36931;SDS011;22847;42.654;23.370;2022-11-15T04:20:17;36.88;;;18.27;;
36931;SDS011;22847;42.654;23.370;2022-11-15T04:23:03;41.95;;;21.80;;
36931;SDS011;22847;42.654;23.370;2022-11-15T04:25:50;46.08;;;22.70;;
36931;SDS011;22847;42.654;23.370;2022-11-15T04:28:17;52.08;;;24.80;;
36931;SDS011;22847;42.654;23.370;2022-11-15T04:30:43;51.60;;;25.98;;
36931;SDS011;22847;42.654;23.370;2022-11-15T04:33:09;61.83;;;30.58;;
36931;SDS011;22847;42.654;23.370;2022-11-15T04:35:34;100.82;;;31.90;;
36931;SDS011;22847;42.654;23.370;2022-11-15T04:37:59;71.10;;;32.17;;
36931;SDS011;22847;42.654;23.370;2022-11-15T04:40:25;91.03;;;34.40;;
36931;SDS011;22847;42.654;23.370;2022-11-15T04:42:51;70.85;;;33.45;;
36931;SDS011;22847;42.654;23.370;2022-11-15T04:45:16;70.20;;;32.22;;
36931;SDS011;22847;42.654;23.370;2022-11-15T04:47:45;71.93;;;33.45;;
36931;SDS011;22847;42.654;23.370;2022-11-15T04:50:11;76.68;;;31.98;;
36931;SDS011;22847;42.654;23.370;2022-11-15T04:52:42;76.38;;;32.90;;
36931;SDS011;22847;42.654;23.370;2022-11-15T04:55:09;72.68;;;32.67;;
36931;SDS011;22847;42.654;23.370;2022-11-15T04:57:36;79.65;;;34.28;;
36931;SDS011;22847;42.654;23.370;2022-11-15T05:00:04;69.78;;;31.98;;
36931;SDS011;22847;42.654;23.370;2022-11-15T05:02:30;72.13;;;32.72;;
36931;SDS011;22847;42.654;23.370;2022-11-15T05:05:16;73.22;;;33.33;;
36931;SDS011;22847;42.654;23.370;2022-11-15T05:07:41;76.20;;;34.53;;
36931;SDS011;22847;42.654;23.370;2022-11-15T05:10:07;80.43;;;31.90;;
36931;SDS011;22847;42.654;23.370;2022-11-15T05:12:32;74.10;;;31.60;;
36931;SDS011;22847;42.654;23.370;2022-11-15T05:14:58;74.72;;;32.15;;
36931;SDS011;22847;42.654;23.370;2022-11-15T05:17:23;68.32;;;30.45;;
36931;SDS011;22847;42.654;23.370;2022-11-15T05:19:48;66.40;;;30.15;;
36931;SDS011;22847;42.654;23.370;2022-11-15T05:22:14;73.20;;;30.95;;
36931;SDS011;22847;42.654;23.370;2022-11-15T05:24:39;76.43;;;29.85;;
36931;SDS011;22847;42.654;23.370;2022-11-15T05:27:05;65.78;;;29.60;;
36931;SDS011;22847;42.654;23.370;2022-11-15T05:29:30;67.45;;;29.80;;
36931;SDS011;22847;42.654;23.370;2022-11-15T05:31:55;70.63;;;29.95;;
36931;SDS011;22847;42.654;23.370;2022-11-15T05:34:21;114.03;;;45.85;;
36931;SDS011;22847;42.654;23.370;2022-11-15T05:36:47;68.95;;;30.92;;
36931;SDS011;22847;42.654;23.370;2022-11-15T05:39:13;79.97;;;33.22;;
36931;SDS011;22847;42.654;23.370;2022-11-15T05:41:40;73.82;;;32.13;;
36931;SDS011;22847;42.654;23.370;2022-11-15T05:44:11;72.00;;;30.40;;
36931;SDS011;22847;42.654;23.370;2022-11-15T05:46:40;72.53;;;29.30;;
36931;SDS011;22847;42.654;23.370;2022-11-15T05:49:07;62.58;;;27.35;;
36931;SDS011;22847;42.654;23.370;2022-11-15T05:51:36;64.90;;;27.13;;
36931;SDS011;22847;42.654;23.370;2022-11-15T05:54:01;65.60;;;27.20;;
36931;SDS011;22847;42.654;23.370;2022-11-15T05:56:28;56.75;;;23.38;;
36931;SDS011;22847;42.654;23.370;2022-11-15T05:58:53;59.42;;;24.33;;
36931;SDS011;22847;42.654;23.370;2022-11-15T06:01:20;66.75;;;21.33;;
36931;SDS011;22847;42.654;23.370;2022-11-15T06:03:46;49.80;;;21.27;;
36931;SDS011;22847;42.654;23.370;2022-11-15T06:06:11;46.75;;;20.60;;
36931;SDS011;22847;42.654;23.370;2022-11-15T06:08:37;45.92;;;19.95;;
36931;SDS011;22847;42.654;23.370;2022-11-15T06:11:03;47.47;;;22.17;;
36931;SDS011;22847;42.654;23.370;2022-11-15T06:13:30;44.97;;;19.88;;
36931;SDS011;22847;42.654;23.370;2022-11-15T06:15:55;39.42;;;18.58;;
36931;SDS011;22847;42.654;23.370;2022-11-15T06:18:21;46.10;;;19.50;;
36931;SDS011;22847;42.654;23.370;2022-11-15T06:20:47;42.15;;;19.42;;
36931;SDS011;22847;42.654;23.370;2022-11-15T06:23:12;45.53;;;19.42;;
36931;SDS011;22847;42.654;23.370;2022-11-15T06:25:38;46.53;;;20.42;;
36931;SDS011;22847;42.654;23.370;2022-11-15T06:28:03;49.88;;;23.45;;
36931;SDS011;22847;42.654;23.370;2022-11-15T06:30:29;51.67;;;20.92;;
36931;SDS011;22847;42.654;23.370;2022-11-15T06:33:04;47.28;;;21.52;;
36931;SDS011;22847;42.654;23.370;2022-11-15T06:35:30;53.28;;;24.00;;
36931;SDS011;22847;42.654;23.370;2022-11-15T06:38:06;62.15;;;24.13;;
36931;SDS011;22847;42.654;23.370;2022-11-15T06:40:34;50.50;;;24.70;;
36931;SDS011;22847;42.654;23.370;2022-11-15T06:43:01;53.17;;;24.35;;
36931;SDS011;22847;42.654;23.370;2022-11-15T06:45:26;59.45;;;24.60;;
36931;SDS011;22847;42.654;23.370;2022-11-15T06:47:52;54.83;;;23.40;;
36931;SDS011;22847;42.654;23.370;2022-11-15T06:50:18;56.83;;;24.90;;
36931;SDS011;22847;42.654;23.370;2022-11-15T06:52:44;53.47;;;24.85;;
36931;SDS011;22847;42.654;23.370;2022-11-15T06:55:09;54.88;;;24.77;;
36931;SDS011;22847;42.654;23.370;2022-11-15T06:57:35;58.63;;;26.75;;
36931;SDS011;22847;42.654;23.370;2022-11-15T07:00:03;62.88;;;26.23;;
36931;SDS011;22847;42.654;23.370;2022-11-15T07:02:29;68.82;;;28.15;;
36931;SDS011;22847;42.654;23.370;2022-11-15T07:04:55;75.82;;;30.20;;
36931;SDS011;22847;42.654;23.370;2022-11-15T07:07:21;75.13;;;31.10;;
36931;SDS011;22847;42.654;23.370;2022-11-15T07:09:46;101.45;;;36.95;;
36931;SDS011;22847;42.654;23.370;2022-11-15T07:12:11;86.70;;;37.20;;
36931;SDS011;22847;42.654;23.370;2022-11-15T07:14:37;105.55;;;38.08;;
36931;SDS011;22847;42.654;23.370;2022-11-15T07:17:03;94.85;;;38.70;;
36931;SDS011;22847;42.654;23.370;2022-11-15T07:19:30;97.15;;;39.40;;
36931;SDS011;22847;42.654;23.370;2022-11-15T07:21:55;86.75;;;35.72;;
36931;SDS011;22847;42.654;23.370;2022-11-15T07:24:21;82.82;;;33.83;;
36931;SDS011;22847;42.654;23.370;2022-11-15T07:26:46;84.13;;;35.20;;
36931;SDS011;22847;42.654;23.370;2022-11-15T07:29:11;86.00;;;33.33;;
36931;SDS011;22847;42.654;23.370;2022-11-15T07:31:37;79.15;;;32.08;;
36931;SDS011;22847;42.654;23.370;2022-11-15T07:34:03;89.32;;;35.28;;
36931;SDS011;22847;42.654;23.370;2022-11-15T07:36:28;90.75;;;38.13;;
36931;SDS011;22847;42.654;23.370;2022-11-15T07:38:53;93.78;;;37.22;;
36931;SDS011;22847;42.654;23.370;2022-11-15T07:41:19;85.97;;;35.53;;
36931;SDS011;22847;42.654;23.370;2022-11-15T07:43:44;90.15;;;34.15;;
36931;SDS011;22847;42.654;23.370;2022-11-15T07:46:10;83.32;;;35.05;;
36931;SDS011;22847;42.654;23.370;2022-11-15T07:48:36;82.63;;;36.35;;
36931;SDS011;22847;42.654;23.370;2022-11-15T07:51:04;92.30;;;38.13;;
36931;SDS011;22847;42.654;23.370;2022-11-15T07:53:31;93.22;;;38.22;;
36931;SDS011;22847;42.654;23.370;2022-11-15T07:55:56;101.25;;;40.63;;
36931;SDS011;22847;42.654;23.370;2022-11-15T07:58:22;101.47;;;40.00;;
36931;SDS011;22847;42.654;23.370;2022-11-15T08:00:47;113.57;;;42.28;;
36931;SDS011;22847;42.654;23.370;2022-11-15T08:03:14;101.15;;;40.42;;
36931;SDS011;22847;42.654;23.370;2022-11-15T08:05:40;96.97;;;38.38;;
36931;SDS011;22847;42.654;23.370;2022-11-15T08:08:08;93.80;;;40.63;;
36931;SDS011;22847;42.654;23.370;2022-11-15T08:10:34;97.07;;;40.95;;
36931;SDS011;22847;42.654;23.370;2022-11-15T08:13:01;94.53;;;41.15;;
36931;SDS011;22847;42.654;23.370;2022-11-15T08:15:32;92.32;;;39.28;;
36931;SDS011;22847;42.654;23.370;2022-11-15T08:18:20;100.05;;;40.92;;
36931;SDS011;22847;42.654;23.370;2022-11-15T08:20:45;85.70;;;38.45;;
36931;SDS011;22847;42.654;23.370;2022-11-15T08:23:11;92.93;;;41.10;;
36931;SDS011;22847;42.654;23.370;2022-11-15T08:25:37;91.18;;;40.58;;
36931;SDS011;22847;42.654;23.370;2022-11-15T08:28:04;96.30;;;40.80;;
36931;SDS011;22847;42.654;23.370;2022-11-15T08:30:33;99.05;;;40.78;;
36931;SDS011;22847;42.654;23.370;2022-11-15T08:33:01;92.20;;;40.35;;
36931;SDS011;22847;42.654;23.370;2022-11-15T08:35:27;84.05;;;39.13;;
36931;SDS011;22847;42.654;23.370;2022-11-15T08:37:53;86.88;;;40.10;;
36931;SDS011;22847;42.654;23.370;2022-11-15T08:40:19;83.97;;;40.33;;
36931;SDS011;22847;42.654;23.370;2022-11-15T08:42:47;90.85;;;39.42;;
36931;SDS011;22847;42.654;23.370;2022-11-15T08:45:13;96.32;;;41.33;;
36931;SDS011;22847;42.654;23.370;2022-11-15T08:47:39;109.65;;;42.20;;
36931;SDS011;22847;42.654;23.370;2022-11-15T08:50:04;90.55;;;41.10;;
36931;SDS011;22847;42.654;23.370;2022-11-15T08:52:30;89.90;;;40.88;;
36931;SDS011;22847;42.654;23.370;2022-11-15T08:54:56;89.18;;;41.40;;
36931;SDS011;22847;42.654;23.370;2022-11-15T08:57:22;93.13;;;42.35;;
36931;SDS011;22847;42.654;23.370;2022-11-15T08:59:47;96.68;;;42.42;;
36931;SDS011;22847;42.654;23.370;2022-11-15T09:02:13;100.88;;;42.03;;
36931;SDS011;22847;42.654;23.370;2022-11-15T09:04:43;85.72;;;40.95;;
36931;SDS011;22847;42.654;23.370;2022-11-15T09:07:09;94.03;;;41.20;;
36931;SDS011;22847;42.654;23.370;2022-11-15T09:09:35;88.10;;;40.88;;
36931;SDS011;22847;42.654;23.370;2022-11-15T09:12:01;90.50;;;39.58;;
36931;SDS011;22847;42.654;23.370;2022-11-15T09:14:26;92.93;;;41.88;;
36931;SDS011;22847;42.654;23.370;2022-11-15T09:16:52;101.78;;;43.67;;
36931;SDS011;22847;42.654;23.370;2022-11-15T09:19:17;97.55;;;42.90;;
36931;SDS011;22847;42.654;23.370;2022-11-15T09:21:43;99.22;;;45.10;;
36931;SDS011;22847;42.654;23.370;2022-11-15T09:24:08;100.07;;;44.83;;
36931;SDS011;22847;42.654;23.370;2022-11-15T09:26:33;99.45;;;43.97;;
36931;SDS011;22847;42.654;23.370;2022-11-15T09:28:59;106.25;;;43.85;;
36931;SDS011;22847;42.654;23.370;2022-11-15T09:31:26;104.75;;;44.40;;
36931;SDS011;22847;42.654;23.370;2022-11-15T09:33:51;105.50;;;46.75;;
36931;SDS011;22847;42.654;23.370;2022-11-15T09:36:17;106.72;;;45.75;;
36931;SDS011;22847;42.654;23.370;2022-11-15T09:38:42;101.53;;;43.35;;
36931;SDS011;22847;42.654;23.370;2022-11-15T09:43:48;95.72;;;41.97;;
36931;SDS011;22847;42.654;23.370;2022-11-15T09:49:06;85.88;;;41.15;;
36931;SDS011;22847;42.654;23.370;2022-11-15T09:51:38;95.10;;;44.67;;
36931;SDS011;22847;42.654;23.370;2022-11-15T09:57:05;93.43;;;43.13;;
36931;SDS011;22847;42.654;23.370;2022-11-15T10:05:12;93.78;;;43.03;;
36931;SDS011;22847;42.654;23.370;2022-11-15T10:10:21;87.32;;;42.67;;
36931;SDS011;22847;42.654;23.370;2022-11-15T10:12:53;91.50;;;43.20;;
36931;SDS011;22847;42.654;23.370;2022-11-15T10:15:19;86.90;;;42.53;;
36931;SDS011;22847;42.654;23.370;2022-11-15T10:20:59;97.15;;;47.55;;
36931;SDS011;22847;42.654;23.370;2022-11-15T10:23:25;99.15;;;46.42;;
36931;SDS011;22847;42.654;23.370;2022-11-15T10:25:54;101.20;;;47.33;;
36931;SDS011;22847;42.654;23.370;2022-11-15T10:28:28;96.60;;;48.35;;
36931;SDS011;22847;42.654;23.370;2022-11-15T10:30:56;99.80;;;48.58;;
36931;SDS011;22847;42.654;23.370;2022-11-15T10:41:12;105.65;;;49.83;;
36931;SDS011;22847;42.654;23.370;2022-11-15T10:43:38;106.88;;;46.63;;
36931;SDS011;22847;42.654;23.370;2022-11-15T10:46:20;95.55;;;44.50;;
36931;SDS011;22847;42.654;23.370;2022-11-15T10:48:47;97.63;;;45.03;;
36931;SDS011;22847;42.654;23.370;2022-11-15T10:51:22;103.85;;;45.80;;
36931;SDS011;22847;42.654;23.370;2022-11-15T10:53:53;98.20;;;44.78;;
36931;SDS011;22847;42.654;23.370;2022-11-15T10:56:22;91.57;;;43.45;;
36931;SDS011;22847;42.654;23.370;2022-11-15T10:58:54;93.90;;;43.17;;
36931;SDS011;22847;42.654;23.370;2022-11-15T11:01:27;94.40;;;41.38;;
36931;SDS011;22847;42.654;23.370;2022-11-15T11:04:06;99.28;;;42.70;;
36931;SDS011;22847;42.654;23.370;2022-11-15T11:06:49;86.63;;;41.50;;
36931;SDS011;22847;42.654;23.370;2022-11-15T11:09:23;109.20;;;44.90;;
36931;SDS011;22847;42.654;23.370;2022-11-15T11:11:52;86.90;;;41.67;;
36931;SDS011;22847;42.654;23.370;2022-11-15T11:14:21;98.07;;;42.40;;
36931;SDS011;22847;42.654;23.370;2022-11-15T11:30:23;98.43;;;46.42;;
36931;SDS011;22847;42.654;23.370;2022-11-15T11:35:34;105.13;;;46.88;;
36931;SDS011;22847;42.654;23.370;2022-11-15T11:46:49;97.95;;;46.17;;
36931;SDS011;22847;42.654;23.370;2022-11-15T12:08:41;96.68;;;43.80;;
36931;SDS011;22847;42.654;23.370;2022-11-15T12:11:14;97.57;;;43.97;;
36931;SDS011;22847;42.654;23.370;2022-11-15T12:13:44;92.35;;;43.60;;
36931;SDS011;22847;42.654;23.370;2022-11-15T12:16:22;98.55;;;46.83;;
36931;SDS011;22847;42.654;23.370;2022-11-15T12:18:52;99.47;;;44.40;;
36931;SDS011;22847;42.654;23.370;2022-11-15T12:26:57;114.30;;;51.95;;
36931;SDS011;22847;42.654;23.370;2022-11-15T12:29:40;109.15;;;51.33;;
36931;SDS011;22847;42.654;23.370;2022-11-15T12:32:33;109.18;;;53.38;;
36931;SDS011;22847;42.654;23.370;2022-11-15T12:35:02;106.07;;;47.03;;
36931;SDS011;22847;42.654;23.370;2022-11-15T12:42:59;95.50;;;43.30;;
36931;SDS011;22847;42.654;23.370;2022-11-15T12:47:52;94.78;;;44.00;;
36931;SDS011;22847;42.654;23.370;2022-11-15T12:50:47;94.82;;;44.80;;
36931;SDS011;22847;42.654;23.370;2022-11-15T13:11:54;89.82;;;43.10;;
36931;SDS011;22847;42.654;23.370;2022-11-15T13:17:55;86.78;;;41.58;;
36931;SDS011;22847;42.654;23.370;2022-11-15T13:22:39;85.75;;;41.60;;
36931;SDS011;22847;42.654;23.370;2022-11-15T13:26:02;81.53;;;41.85;;
36931;SDS011;22847;42.654;23.370;2022-11-15T13:28:34;83.40;;;41.90;;
36931;SDS011;22847;42.654;23.370;2022-11-15T13:32:04;89.47;;;43.70;;
36931;SDS011;22847;42.654;23.370;2022-11-15T13:37:00;93.97;;;45.15;;
36931;SDS011;22847;42.654;23.370;2022-11-15T13:39:33;85.82;;;42.47;;
36931;SDS011;22847;42.654;23.370;2022-11-15T13:42:01;89.85;;;43.78;;
36931;SDS011;22847;42.654;23.370;2022-11-15T13:44:31;94.68;;;47.90;;
36931;SDS011;22847;42.654;23.370;2022-11-15T13:49:56;100.70;;;46.88;;
36931;SDS011;22847;42.654;23.370;2022-11-15T13:52:22;95.13;;;45.70;;
36931;SDS011;22847;42.654;23.370;2022-11-15T13:55:00;95.90;;;48.78;;
36931;SDS011;22847;42.654;23.370;2022-11-15T13:57:40;98.93;;;45.08;;
36931;SDS011;22847;42.654;23.370;2022-11-15T14:00:30;101.75;;;45.83;;
36931;SDS011;22847;42.654;23.370;2022-11-15T14:03:33;88.78;;;43.22;;
36931;SDS011;22847;42.654;23.370;2022-11-15T14:08:36;99.07;;;47.35;;
36931;SDS011;22847;42.654;23.370;2022-11-15T14:13:32;102.88;;;44.22;;
36931;SDS011;22847;42.654;23.370;2022-11-15T14:16:13;100.05;;;43.63;;
36931;SDS011;22847;42.654;23.370;2022-11-15T14:18:51;96.07;;;43.22;;
36931;SDS011;22847;42.654;23.370;2022-11-15T14:21:18;94.82;;;43.45;;
36931;SDS011;22847;42.654;23.370;2022-11-15T14:23:44;89.60;;;41.83;;
36931;SDS011;22847;42.654;23.370;2022-11-15T14:26:30;91.03;;;44.08;;
36931;SDS011;22847;42.654;23.370;2022-11-15T14:29:20;94.50;;;42.42;;
36931;SDS011;22847;42.654;23.370;2022-11-15T14:31:48;92.10;;;42.65;;
36931;SDS011;22847;42.654;23.370;2022-11-15T14:34:14;86.88;;;41.95;;
36931;SDS011;22847;42.654;23.370;2022-11-15T14:36:39;93.70;;;43.53;;
36931;SDS011;22847;42.654;23.370;2022-11-15T14:39:04;90.25;;;43.67;;
36931;SDS011;22847;42.654;23.370;2022-11-15T14:41:33;100.35;;;45.30;;
36931;SDS011;22847;42.654;23.370;2022-11-15T14:44:02;92.00;;;45.35;;
36931;SDS011;22847;42.654;23.370;2022-11-15T14:46:28;96.40;;;45.75;;
36931;SDS011;22847;42.654;23.370;2022-11-15T14:48:54;100.35;;;46.78;;
36931;SDS011;22847;42.654;23.370;2022-11-15T14:51:19;111.45;;;49.33;;
36931;SDS011;22847;42.654;23.370;2022-11-15T14:53:45;107.00;;;50.75;;
36931;SDS011;22847;42.654;23.370;2022-11-15T14:56:11;110.20;;;54.42;;
36931;SDS011;22847;42.654;23.370;2022-11-15T14:58:37;116.22;;;53.28;;
36931;SDS011;22847;42.654;23.370;2022-11-15T15:01:10;118.95;;;55.83;;
36931;SDS011;22847;42.654;23.370;2022-11-15T15:03:38;127.00;;;57.88;;
36931;SDS011;22847;42.654;23.370;2022-11-15T15:06:04;121.60;;;57.03;;
36931;SDS011;22847;42.654;23.370;2022-11-15T15:08:29;117.05;;;54.85;;
36931;SDS011;22847;42.654;23.370;2022-11-15T15:10:55;118.72;;;54.40;;
36931;SDS011;22847;42.654;23.370;2022-11-15T15:13:21;115.10;;;54.42;;
36931;SDS011;22847;42.654;23.370;2022-11-15T15:15:49;118.38;;;54.25;;
36931;SDS011;22847;42.654;23.370;2022-11-15T15:18:15;119.72;;;52.85;;
36931;SDS011;22847;42.654;23.370;2022-11-15T15:20:41;118.95;;;54.05;;
36931;SDS011;22847;42.654;23.370;2022-11-15T15:23:15;104.45;;;50.33;;
36931;SDS011;22847;42.654;23.370;2022-11-15T15:25:45;105.55;;;50.00;;
36931;SDS011;22847;42.654;23.370;2022-11-15T15:28:13;109.97;;;50.15;;
36931;SDS011;22847;42.654;23.370;2022-11-15T15:30:38;110.35;;;50.25;;
36931;SDS011;22847;42.654;23.370;2022-11-15T15:33:04;117.13;;;52.42;;
36931;SDS011;22847;42.654;23.370;2022-11-15T15:35:30;121.05;;;52.65;;
36931;SDS011;22847;42.654;23.370;2022-11-15T15:37:57;118.22;;;52.72;;
36931;SDS011;22847;42.654;23.370;2022-11-15T15:40:23;115.78;;;51.42;;
36931;SDS011;22847;42.654;23.370;2022-11-15T15:42:50;109.07;;;50.80;;
36931;SDS011;22847;42.654;23.370;2022-11-15T15:45:15;127.40;;;53.75;;
36931;SDS011;22847;42.654;23.370;2022-11-15T15:47:42;107.32;;;51.88;;
36931;SDS011;22847;42.654;23.370;2022-11-15T15:50:29;116.57;;;54.85;;
36931;SDS011;22847;42.654;23.370;2022-11-15T15:52:57;125.82;;;53.28;;
36931;SDS011;22847;42.654;23.370;2022-11-15T15:55:25;120.25;;;53.33;;
36931;SDS011;22847;42.654;23.370;2022-11-15T15:57:50;131.95;;;56.97;;
36931;SDS011;22847;42.654;23.370;2022-11-15T16:00:17;132.50;;;59.28;;
36931;SDS011;22847;42.654;23.370;2022-11-15T16:02:43;135.00;;;60.30;;
36931;SDS011;22847;42.654;23.370;2022-11-15T16:05:09;145.93;;;63.38;;
36931;SDS011;22847;42.654;23.370;2022-11-15T16:07:35;144.63;;;66.75;;
36931;SDS011;22847;42.654;23.370;2022-11-15T16:10:01;144.55;;;62.88;;
36931;SDS011;22847;42.654;23.370;2022-11-15T16:12:47;143.77;;;62.92;;
36931;SDS011;22847;42.654;23.370;2022-11-15T16:15:12;145.05;;;64.90;;
36931;SDS011;22847;42.654;23.370;2022-11-15T16:17:39;161.00;;;65.35;;
36931;SDS011;22847;42.654;23.370;2022-11-15T16:20:15;159.52;;;66.82;;
36931;SDS011;22847;42.654;23.370;2022-11-15T16:23:05;146.45;;;63.13;;
36931;SDS011;22847;42.654;23.370;2022-11-15T16:25:37;134.98;;;59.17;;
36931;SDS011;22847;42.654;23.370;2022-11-15T16:28:25;126.22;;;58.00;;
36931;SDS011;22847;42.654;23.370;2022-11-15T16:31:01;138.18;;;61.30;;
36931;SDS011;22847;42.654;23.370;2022-11-15T16:36:02;148.50;;;63.03;;
36931;SDS011;22847;42.654;23.370;2022-11-15T16:38:37;137.90;;;61.72;;
36931;SDS011;22847;42.654;23.370;2022-11-15T16:41:04;138.35;;;62.10;;
36931;SDS011;22847;42.654;23.370;2022-11-15T16:43:29;137.55;;;60.78;;
36931;SDS011;22847;42.654;23.370;2022-11-15T16:45:54;149.20;;;60.88;;
36931;SDS011;22847;42.654;23.370;2022-11-15T16:48:24;140.43;;;61.53;;
36931;SDS011;22847;42.654;23.370;2022-11-15T16:50:54;130.48;;;58.03;;